createdAt,value
2023-01-25T00:02:03.593Z,102773.25
2023-01-25T00:05:06.792Z,102777.25
2023-01-25T00:08:09.427Z,102779.34
2023-01-25T00:11:12.131Z,102792.59
2023-01-25T00:14:15.687Z,102785.97
2023-01-25T00:17:18.138Z,102786.91
2023-01-25T00:20:20.590Z,102780.13
2023-01-25T00:23:22.957Z,102780.13
2023-01-25T00:26:25.318Z,102780.44
2023-01-25T00:29:27.700Z,102773.44
2023-01-25T00:32:42.592Z,102778.25
2023-01-25T00:35:46.161Z,102766.72
2023-01-25T00:38:54.271Z,102760.78
2023-01-25T00:41:56.765Z,102770.22
2023-01-25T00:44:59.330Z,102757.22
2023-01-25T00:48:01.735Z,102768.41
2023-01-25T00:51:04.383Z,102762.31
2023-01-25T00:54:06.835Z,102767.09
2023-01-25T00:57:10.009Z,102756.69
2023-01-25T01:00:13.360Z,102749.56
2023-01-25T01:03:17.252Z,102754.34
2023-01-25T01:06:21.321Z,102755.31
2023-01-25T01:09:24.644Z,102754.72
2023-01-25T01:12:28.264Z,102734.09
2023-01-25T01:15:30.743Z,102742.00
2023-01-25T01:18:42.647Z,102745.59
2023-01-25T01:21:44.941Z,102734.00
2023-01-25T01:24:49.750Z,102734.13
2023-01-25T01:27:52.045Z,102731.91
2023-01-25T01:30:54.656Z,102733.44
2023-01-25T01:33:58.762Z,102730.66
2023-01-25T01:37:01.625Z,102730.34
2023-01-25T01:40:04.110Z,102726.63
2023-01-25T01:43:14.343Z,102720.84
2023-01-25T01:46:35.274Z,102715.47
2023-01-25T01:49:37.855Z,102718.50
2023-01-25T01:52:47.980Z,102699.06
2023-01-25T01:55:50.477Z,102694.25
2023-01-25T01:58:54.305Z,102703.09
2023-01-25T02:01:57.191Z,102691.84
2023-01-25T02:05:02.323Z,102691.03
2023-01-25T02:08:06.074Z,102682.16
2023-01-25T02:11:10.124Z,102687.69
2023-01-25T02:14:12.636Z,102681.50
2023-01-25T02:17:15.337Z,102677.66
2023-01-25T02:20:37.971Z,102680.88
2023-01-25T02:23:48.694Z,102671.06
2023-01-25T02:26:51.125Z,102662.84
2023-01-25T02:29:53.651Z,102655.75
2023-01-25T02:32:58.373Z,102640.94
2023-01-25T02:36:05.945Z,102647.72
2023-01-25T02:39:11.161Z,102639.38
2023-01-25T02:42:13.787Z,102632.84
2023-01-25T02:45:20.994Z,102624.38
2023-01-25T02:48:23.517Z,102623.16
2023-01-25T02:51:28.156Z,102627.59
2023-01-25T02:54:31.326Z,102615.78
2023-01-25T02:57:33.737Z,102624.81
2023-01-25T03:00:36.500Z,102603.91
2023-01-25T03:03:39.864Z,102625.38
2023-01-25T03:06:42.709Z,102618.53
2023-01-25T03:09:45.227Z,102612.63
2023-01-25T03:12:47.822Z,102609.78
2023-01-25T03:15:50.338Z,102614.41
2023-01-25T03:18:56.790Z,102606.88
2023-01-25T03:22:00.453Z,102602.19
2023-01-25T03:25:03.594Z,102604.56
2023-01-25T03:28:06.426Z,102600.97
2023-01-25T03:31:11.872Z,102603.97
2023-01-25T03:34:14.492Z,102593.00
2023-01-25T03:37:18.699Z,102585.91
2023-01-25T03:40:21.390Z,102593.41
2023-01-25T03:43:25.953Z,102594.53
2023-01-25T03:46:29.619Z,102590.75
2023-01-25T03:49:32.157Z,102593.16
2023-01-25T03:52:40.802Z,102595.53
2023-01-25T03:55:43.825Z,102585.84
2023-01-25T03:58:46.747Z,102558.97
2023-01-25T04:01:49.371Z,102561.94
2023-01-25T04:04:51.963Z,102579.22
2023-01-25T04:07:56.457Z,102577.31
2023-01-25T04:11:09.458Z,102569.31
2023-01-25T04:14:12.047Z,102565.31
2023-01-25T04:17:21.648Z,102566.31
2023-01-25T04:20:28.102Z,102530.91
2023-01-25T04:23:31.638Z,102556.16
2023-01-25T04:26:34.008Z,102562.00
2023-01-25T04:29:41.486Z,102566.31
2023-01-25T04:32:48.315Z,102570.47
2023-01-25T04:36:05.979Z,102565.72
2023-01-25T04:39:08.507Z,102563.94
2023-01-25T04:42:12.460Z,102549.97
2023-01-25T04:45:15.772Z,102563.25
2023-01-25T04:48:18.773Z,102556.31
2023-01-25T04:51:26.620Z,102552.75
2023-01-25T04:54:29.252Z,102533.16
2023-01-25T04:57:31.765Z,102530.91
2023-01-25T05:00:34.588Z,102529.72
2023-01-25T05:03:38.143Z,102532.59
2023-01-25T05:06:46.813Z,102531.34
2023-01-25T05:09:49.241Z,102535.78
2023-01-25T05:12:51.680Z,102523.56
2023-01-25T05:15:56.402Z,102528.56
2023-01-25T05:18:59.086Z,102521.91
2023-01-25T05:22:20.901Z,102535.03
2023-01-25T05:25:45.418Z,102525.31
2023-01-25T05:28:49.254Z,102530.50
2023-01-25T05:32:03.306Z,102526.19
2023-01-25T05:35:05.870Z,102514.88
2023-01-25T05:38:08.260Z,102503.00
2023-01-25T05:41:11.561Z,102496.34
2023-01-25T05:44:14.365Z,102482.25
2023-01-25T05:47:21.548Z,102476.97
2023-01-25T05:50:24.970Z,102493.50
2023-01-25T05:53:36.318Z,102499.28
2023-01-25T05:56:39.170Z,102498.28
2023-01-25T05:59:41.680Z,102500.56
2023-01-25T06:02:46.315Z,102490.00
2023-01-25T06:05:56.772Z,102477.47
2023-01-25T06:08:59.461Z,102493.47
2023-01-25T06:12:01.916Z,102479.63
2023-01-25T06:15:04.906Z,102477.06
2023-01-25T06:18:08.450Z,102484.75
2023-01-25T06:21:50.932Z,102476.03
2023-01-25T06:24:53.246Z,102479.41
2023-01-25T06:27:56.142Z,102477.13
2023-01-25T06:31:08.677Z,102478.84
2023-01-25T06:34:11.159Z,102481.13
2023-01-25T06:37:14.295Z,102483.09
2023-01-25T06:40:17.283Z,102486.03
2023-01-25T06:43:19.650Z,102480.41
2023-01-25T06:46:22.702Z,102480.69
2023-01-25T06:49:25.277Z,102478.47
2023-01-25T06:52:27.813Z,102474.72
2023-01-25T06:55:30.255Z,102479.81
2023-01-25T06:58:33.283Z,102478.41
2023-01-25T07:01:35.762Z,102475.06
2023-01-25T07:04:38.422Z,102455.09
2023-01-25T07:07:41.076Z,102458.66
2023-01-25T07:10:43.443Z,102458.63
2023-01-25T07:13:46.997Z,102459.69
2023-01-25T07:16:49.504Z,102454.97
2023-01-25T07:19:51.931Z,102460.59
2023-01-25T07:22:54.276Z,102464.41
2023-01-25T07:25:58.296Z,102462.53
2023-01-25T07:29:00.890Z,102458.88
2023-01-25T07:32:06.734Z,102464.22
2023-01-25T07:35:09.677Z,102451.28
2023-01-25T07:38:13.963Z,102455.66
2023-01-25T07:41:17.280Z,102434.38
2023-01-25T07:44:19.666Z,102456.09
2023-01-25T07:47:25.502Z,102459.81
2023-01-25T07:50:28.634Z,102448.63
2023-01-25T07:53:31.019Z,102449.59
2023-01-25T07:56:35.645Z,102439.19
2023-01-25T07:59:38.047Z,102436.94
2023-01-25T08:02:40.988Z,102440.59
2023-01-25T08:05:46.428Z,102400.16
2023-01-25T08:08:49.776Z,102420.44
2023-01-25T08:11:53.755Z,102420.22
2023-01-25T08:14:56.487Z,102408.41
2023-01-25T08:18:01.840Z,102411.38
2023-01-25T08:21:04.483Z,102405.03
2023-01-25T08:24:08.306Z,102419.25
2023-01-25T08:27:10.492Z,102413.78
2023-01-25T08:30:13.251Z,102406.59
2023-01-25T08:33:15.566Z,102403.78
2023-01-25T08:36:19.194Z,102403.91
2023-01-25T08:39:21.598Z,102396.31
2023-01-25T08:42:24.747Z,102386.69
2023-01-25T08:45:27.073Z,102401.19
2023-01-25T08:48:29.552Z,102398.16
2023-01-25T08:51:32.774Z,102398.41
2023-01-25T08:54:35.089Z,102398.31
2023-01-25T08:57:37.418Z,102400.69
2023-01-25T09:00:41.430Z,102399.25
2023-01-25T09:03:45.468Z,102396.28
2023-01-25T09:06:47.856Z,102382.66
2023-01-25T09:09:50.245Z,102387.00
2023-01-25T09:12:52.781Z,102385.88
2023-01-25T09:16:06.551Z,102375.19
2023-01-25T09:19:08.871Z,102384.63
2023-01-25T09:22:11.105Z,102372.25
2023-01-25T09:25:13.478Z,102378.03
2023-01-25T09:28:15.805Z,102376.19
2023-01-25T09:31:22.623Z,102376.13
2023-01-25T09:34:37.955Z,102375.75
2023-01-25T09:37:40.279Z,102370.66
2023-01-25T09:40:46.942Z,102367.41
2023-01-25T09:44:19.907Z,102367.03
2023-01-25T09:47:54.066Z,102362.38
2023-01-25T09:51:08.628Z,102348.44
2023-01-25T09:54:11.399Z,102345.22
2023-01-25T09:57:17.531Z,102339.28
2023-01-25T10:00:49.692Z,102338.97
2023-01-25T10:04:00.323Z,102327.84
2023-01-25T10:07:20.383Z,102323.03
2023-01-25T10:10:29.946Z,102319.72
2023-01-25T10:13:32.279Z,102321.13
2023-01-25T10:16:47.358Z,102308.31
2023-01-25T10:20:04.613Z,102314.66
2023-01-25T10:23:18.989Z,102322.09
2023-01-25T10:26:26.785Z,102294.63
2023-01-25T10:29:32.531Z,102294.78
2023-01-25T10:32:39.675Z,102293.13
2023-01-25T10:35:50.298Z,102290.03
2023-01-25T10:38:59.277Z,102288.50
2023-01-25T10:42:10.438Z,102278.47
2023-01-25T10:45:13.856Z,102265.47
2023-01-25T10:48:36.447Z,102279.06
2023-01-25T10:51:38.746Z,102270.09
2023-01-25T10:54:41.091Z,102253.97
2023-01-25T10:57:45.586Z,102250.44
2023-01-25T11:00:52.555Z,102248.72
2023-01-25T11:03:55.190Z,102240.78
2023-01-25T11:06:57.945Z,102228.84
2023-01-25T11:10:00.614Z,102233.00
2023-01-25T11:13:21.119Z,102234.69
2023-01-25T11:16:39.302Z,102238.41
2023-01-25T11:19:41.687Z,102213.75
2023-01-25T11:22:50.936Z,102211.78
2023-01-25T11:25:53.772Z,102212.78
2023-01-25T11:29:17.189Z,102206.56
2023-01-25T11:32:22.756Z,102210.03
2023-01-25T11:35:29.921Z,102198.25
2023-01-25T11:38:32.452Z,102191.28
2023-01-25T11:41:50.064Z,102189.94
2023-01-25T11:44:59.578Z,102185.53
2023-01-25T11:48:13.569Z,102170.16
2023-01-25T11:51:21.645Z,102168.81
2023-01-25T11:54:36.521Z,102169.34
2023-01-25T11:57:38.744Z,102171.69
2023-01-25T12:01:05.516Z,102170.63
2023-01-25T12:04:41.061Z,102152.16
2023-01-25T12:08:02.300Z,102156.00
2023-01-25T12:11:14.422Z,102152.28
2023-01-25T12:14:45.296Z,102130.38
2023-01-25T12:18:14.743Z,102143.44
2023-01-25T12:21:31.188Z,102126.78
2023-01-25T12:25:14.924Z,102118.00
2023-01-25T12:28:55.454Z,102107.03
2023-01-25T12:31:59.314Z,102102.75
2023-01-25T12:35:14.035Z,102099.47
2023-01-25T12:38:39.412Z,102091.81
2023-01-25T12:41:59.440Z,102082.94
2023-01-25T12:45:27.816Z,102074.94
2023-01-25T12:48:36.746Z,102082.56
2023-01-25T12:51:41.342Z,102076.38
2023-01-25T12:54:45.707Z,102070.16
2023-01-25T12:57:59.279Z,102074.31
2023-01-25T13:01:20.315Z,102062.28
2023-01-25T13:04:28.574Z,102058.84
2023-01-25T13:07:37.975Z,102049.34
2023-01-25T13:10:47.326Z,102028.56
2023-01-25T13:13:49.766Z,102017.66
2023-01-25T13:17:09.025Z,102029.75
2023-01-25T13:20:39.757Z,102016.25
2023-01-25T13:23:52.219Z,102005.47
2023-01-25T13:26:54.548Z,102006.63
2023-01-25T13:30:01.593Z,102004.13
2023-01-25T13:33:07.234Z,101991.31
2023-01-25T13:36:37.711Z,102000.13
2023-01-25T13:39:45.441Z,101997.56
2023-01-25T13:43:03.829Z,101985.41
2023-01-25T13:46:08.602Z,101987.94
2023-01-25T13:49:19.605Z,101990.38
2023-01-25T13:52:23.659Z,101980.31
2023-01-25T13:55:26.360Z,101967.88
2023-01-25T13:58:33.199Z,101966.06
2023-01-25T14:01:36.886Z,101962.41
2023-01-25T14:04:39.533Z,101958.03
2023-01-25T14:07:44.624Z,101953.28
2023-01-25T14:10:48.125Z,101960.16
2023-01-25T14:14:20.294Z,101953.78
2023-01-25T14:17:23.848Z,101948.38
2023-01-25T14:20:26.336Z,101923.75
2023-01-25T14:23:30.793Z,101940.16
2023-01-25T14:26:33.000Z,101944.59
2023-01-25T14:29:35.711Z,101948.53
2023-01-25T14:32:38.153Z,101938.28
2023-01-25T14:35:53.764Z,101937.97
2023-01-25T14:38:57.861Z,101941.06
2023-01-25T14:42:01.945Z,101934.16
2023-01-25T14:45:04.842Z,101916.25
2023-01-25T14:48:33.807Z,101916.53
2023-01-25T14:51:41.763Z,101910.31
2023-01-25T14:54:53.171Z,101916.75
2023-01-25T14:58:02.317Z,101915.03
2023-01-25T15:01:04.865Z,101912.16
2023-01-25T15:04:12.456Z,101914.81
2023-01-25T15:07:41.860Z,101899.00
2023-01-25T15:10:55.701Z,101901.16
2023-01-25T15:14:02.723Z,101893.50
2023-01-25T15:17:05.045Z,101889.19
2023-01-25T15:20:08.605Z,101889.31
2023-01-25T15:23:25.989Z,101896.84
2023-01-25T15:26:36.032Z,101891.34
2023-01-25T15:29:40.282Z,101890.13
2023-01-25T15:32:42.947Z,101885.31
2023-01-25T15:35:45.386Z,101895.00
2023-01-25T15:38:49.329Z,101889.72
2023-01-25T15:41:51.770Z,101880.16
2023-01-25T15:44:54.065Z,101879.66
2023-01-25T15:47:56.456Z,101865.97
2023-01-25T15:50:58.948Z,101862.72
2023-01-25T15:54:01.469Z,101851.53
2023-01-25T15:57:03.964Z,101851.84
2023-01-25T16:00:06.934Z,101860.91
2023-01-25T16:03:09.355Z,101862.53
2023-01-25T16:06:44.387Z,101853.19
2023-01-25T16:09:46.954Z,101838.25
2023-01-25T16:12:49.621Z,101850.44
2023-01-25T16:15:54.103Z,101844.31
2023-01-25T16:18:56.531Z,101841.22
2023-01-25T16:21:59.176Z,101835.94
2023-01-25T16:25:01.559Z,101843.81
2023-01-25T16:28:04.980Z,101838.09
2023-01-25T16:31:07.557Z,101842.66
2023-01-25T16:34:10.106Z,101831.28
2023-01-25T16:37:18.827Z,101829.25
2023-01-25T16:40:36.695Z,101839.94
2023-01-25T16:43:45.519Z,101844.25
2023-01-25T16:46:51.227Z,101838.84
2023-01-25T16:49:53.633Z,101834.19
2023-01-25T16:52:57.070Z,101826.66
2023-01-25T16:56:00.168Z,101831.50
2023-01-25T16:59:05.209Z,101824.00
2023-01-25T17:02:07.665Z,101825.44
2023-01-25T17:05:11.386Z,101821.75
2023-01-25T17:08:13.704Z,101810.31
2023-01-25T17:11:19.020Z,101818.44
2023-01-25T17:14:22.446Z,101808.59
2023-01-25T17:17:27.636Z,101786.88
2023-01-25T17:20:30.186Z,101792.91
2023-01-25T17:23:36.895Z,101799.59
2023-01-25T17:26:40.959Z,101786.84
2023-01-25T17:29:43.877Z,101800.31
2023-01-25T17:32:46.555Z,101796.28
2023-01-25T17:35:52.660Z,101792.16
2023-01-25T17:38:55.638Z,101782.44
2023-01-25T17:41:59.594Z,101790.50
2023-01-25T17:45:02.289Z,101797.88
2023-01-25T17:48:07.662Z,101760.03
2023-01-25T17:51:10.239Z,101775.56
2023-01-25T17:54:13.294Z,101769.06
2023-01-25T17:57:18.196Z,101774.38
2023-01-25T18:00:20.969Z,101775.94
2023-01-25T18:03:23.506Z,101776.53
2023-01-25T18:06:29.661Z,101770.03
2023-01-25T18:09:33.835Z,101765.53
2023-01-25T18:12:36.466Z,101767.66
2023-01-25T18:15:39.339Z,101740.44
2023-01-25T18:18:43.454Z,101751.91
2023-01-25T18:21:46.685Z,101749.00
2023-01-25T18:24:49.265Z,101737.31
2023-01-25T18:27:51.828Z,101731.91
2023-01-25T18:31:04.300Z,101730.69
2023-01-25T18:34:06.826Z,101734.56
2023-01-25T18:37:18.378Z,101730.38
2023-01-25T18:40:20.902Z,101710.19
2023-01-25T18:43:23.884Z,101716.69
2023-01-25T18:46:26.373Z,101717.41
2023-01-25T18:49:28.851Z,101710.50
2023-01-25T18:52:31.202Z,101703.66
2023-01-25T18:55:33.699Z,101698.66
2023-01-25T18:58:37.535Z,101703.25
2023-01-25T19:01:39.876Z,101705.53
2023-01-25T19:04:42.248Z,101701.47
2023-01-25T19:07:44.573Z,101696.84
2023-01-25T19:10:47.016Z,101688.75
2023-01-25T19:13:50.494Z,101631.66
2023-01-25T19:16:54.436Z,101696.44
2023-01-25T19:19:56.715Z,101689.25
2023-01-25T19:22:59.096Z,101672.53
2023-01-25T19:26:01.467Z,101681.03
2023-01-25T19:29:04.392Z,101667.38
2023-01-25T19:32:06.945Z,101670.41
2023-01-25T19:35:09.592Z,101661.75
2023-01-25T19:38:12.244Z,101637.81
2023-01-25T19:41:18.812Z,101661.81
2023-01-25T19:44:21.494Z,101653.31
2023-01-25T19:47:23.926Z,101644.78
2023-01-25T19:50:26.391Z,101630.03
2023-01-25T19:53:28.763Z,101644.06
2023-01-25T19:56:36.782Z,101644.41
2023-01-25T19:59:39.205Z,101650.03
2023-01-25T20:02:42.153Z,101649.03
2023-01-25T20:05:44.742Z,101637.53
2023-01-25T20:08:48.346Z,101633.31
2023-01-25T20:11:50.690Z,101632.72
2023-01-25T20:14:53.234Z,101619.34
2023-01-25T20:17:55.799Z,101617.94
2023-01-25T20:20:59.729Z,101623.28
2023-01-25T20:24:03.588Z,101622.00
2023-01-25T20:27:07.504Z,101615.25
2023-01-25T20:30:10.076Z,101621.06
2023-01-25T20:33:13.170Z,101615.22
2023-01-25T20:36:15.728Z,101611.25
2023-01-25T20:39:22.971Z,101598.75
2023-01-25T20:42:25.377Z,101599.09
2023-01-25T20:45:27.734Z,101596.91
2023-01-25T20:48:36.411Z,101603.91
2023-01-25T20:51:39.095Z,101599.91
2023-01-25T20:54:41.905Z,101582.34
2023-01-25T20:57:44.397Z,101599.88
2023-01-25T21:00:46.919Z,101590.22
2023-01-25T21:03:49.926Z,101591.88
2023-01-25T21:06:52.226Z,101600.81
2023-01-25T21:09:54.586Z,101602.91
2023-01-25T21:12:56.861Z,101592.03
2023-01-25T21:16:12.449Z,101586.00
2023-01-25T21:19:14.797Z,101574.13
2023-01-25T21:22:17.216Z,101576.81
2023-01-25T21:25:19.758Z,101572.28
2023-01-25T21:28:22.081Z,101579.50
2023-01-25T21:31:26.876Z,101573.78
2023-01-25T21:34:31.066Z,101584.50
2023-01-25T21:37:33.633Z,101579.34
2023-01-25T21:40:36.606Z,101580.97
2023-01-25T21:43:57.917Z,101576.44
2023-01-25T21:47:28.465Z,101580.31
2023-01-25T21:50:41.163Z,101564.31
2023-01-25T21:53:48.576Z,101576.84
2023-01-25T21:56:53.431Z,101568.16
2023-01-25T21:59:55.853Z,101570.81
2023-01-25T22:02:58.741Z,101569.81
2023-01-25T22:06:01.104Z,101562.44
2023-01-25T22:09:04.322Z,101550.06
2023-01-25T22:12:06.826Z,101544.38
2023-01-25T22:15:09.650Z,101537.03
2023-01-25T22:18:12.329Z,101545.38
2023-01-25T22:21:23.220Z,101541.03
2023-01-25T22:24:25.691Z,101540.91
2023-01-25T22:27:32.079Z,101536.00
2023-01-25T22:30:34.500Z,101531.00
2023-01-25T22:33:37.093Z,101528.66
2023-01-25T22:36:39.498Z,101510.25
2023-01-25T22:39:42.084Z,101517.66
2023-01-25T22:42:44.377Z,101521.81
2023-01-25T22:45:52.040Z,101504.56
2023-01-25T22:48:56.922Z,101511.75
2023-01-25T22:52:00.824Z,101514.94
2023-01-25T22:55:04.688Z,101518.13
2023-01-25T22:58:08.837Z,101500.91
2023-01-25T23:01:14.588Z,101510.25
2023-01-25T23:04:17.723Z,101502.22
2023-01-25T23:07:20.452Z,101501.75
2023-01-25T23:10:23.202Z,101496.06
2023-01-25T23:13:25.755Z,101491.19
2023-01-25T23:16:28.318Z,101490.06
2023-01-25T23:19:30.726Z,101494.88
2023-01-25T23:22:33.277Z,101488.81
2023-01-25T23:25:35.689Z,101485.47
2023-01-25T23:28:38.414Z,101480.75
2023-01-25T23:31:40.872Z,101479.78
2023-01-25T23:34:44.953Z,101475.47
2023-01-25T23:37:48.711Z,101461.25
2023-01-25T23:40:51.377Z,101451.34
2023-01-25T23:43:55.197Z,101462.28
2023-01-25T23:46:57.964Z,101462.91
2023-01-25T23:50:00.871Z,101454.88
2023-01-25T23:53:05.302Z,101444.84
2023-01-25T23:56:10.825Z,101439.63
2023-01-25T23:59:13.512Z,101428.09
